South Jamesport, NY (11970)

5:26 PM EST on December 13, 2017 (GMT -0500)
Jamesport - Long Island | | Change Station
Active Advisory: Winter Weather Advisory

Elev 20 ft 40.94 °N, 72.58 °W | Updated 3 minutes ago

Clear
Clear
29.9 °F
Feels Like 30 °F
N
2.0
Wind Variable Wind from West

Today
High -- | Low -- °F
--% Chance of Precip.
Yesterday
High -- | Low -- °F
Precip. -- in
Pressure 29.58 in
Visibility 10.0 miles
Clouds Clear
Windchill 30 °F
Dew Point 16 °F
Humidity 56%
Rainfall 0.00 in
Snow Depth Not available.
7:06 AM 4:22 PM
Waning Crescent, 16% visible
METAR KFOK 132153Z 28018G25KT 10SM CLR M02/M16 A2958 RMK AO2 PK WND 27027/2115 SLP017 T10221156 $
Pressure 29.58 in
Visibility 10.0 miles
Clouds Clear
Windchill 30 °F
Dew Point 16 °F
Humidity 56%
Rainfall 0.00 in
Snow Depth Not available.
7:06 AM 4:22 PM
Waning Crescent, 16% visible
METAR KFOK 132153Z 28018G25KT 10SM CLR M02/M16 A2958 RMK AO2 PK WND 27027/2115 SLP017 T10221156 $

Get Your Daily Forecast Email!

Thanks for signing up!

Be on the lookout for a verification email in your inbox.

You'll start receiving severe weather alerts in your inbox..

×

10-Day Weather Forecast

Almanac

Astronomy

Dec. 13, 2017 Rise Set
Actual Time
Civil Twilight
Nautical Twilight
Astronomical Twilight
Moon
Length of Visible Light
Length of Day
Tomorrow will be .
, % of the Moon is Illuminated

Today's Extremes

State Highs State Lows

Community

WunderPhotos

Category 6

Welcome to Category 6. This is the collective home for Weather Underground's featured writeups by Dr. Jeff Masters (right), Bob Henson (left), Chris Burt, and other regular contributors.

Nearby

Air Quality

  Air Quality AQ Index Pollutant
Not available.

Snow Depth

Station Depth Elevation

Earthquake Activity

City Distance Mag. Time & Date
Minimum magnitude displayed is 2.5.

Coastal Water Temperatures

Place Temperature

Stations

Nearby Weather Stations

Station Location Temp. Windchill Dew Point Humidity Wind Precip. Elev Updated Type
                   

Watches & Warnings

Winter Weather Advisory
Issued: 2:49 PM EST Dec. 13, 2017 – National Weather Service

... Winter Weather Advisory in effect from 3 am to 10 am EST
Thursday...

* what... snow expected. Plan on slippery Road conditions,
including during the morning commute on Thursday. Total snow
accumulations of 2 to 3 inches are expected.

* Where... Long Island.

* When... from 3 am to 10 am EST Thursday.

* Additional details... be prepared for reduced visibilities at
times.

Precautionary/preparedness actions...

A Winter Weather Advisory for snow means periods of snow will
cause primarily travel difficulties. Be prepared for snow covered
roads and limited visibilities, and use caution while driving.
The latest Road conditions for the state you are calling from can
be obtained by calling 5 1 1.